Air Navigation Services of Czech Republic  
Last data update:  18.07.2018 18:08:06 UTC Česká verze
   METEO Page displayed:  18.07.2018 18:08:51 UTC  
help
METAR EDDB 181750Z 32012KT CAVOK 26/12 Q1014 NOSIG=
METAR EDDC 181750Z 32010KT 290V360 CAVOK 25/08 Q1015 NOSIG=
METAR EDDE 181750Z 34010KT CAVOK 24/08 Q1017 NOSIG=
METAR EDDF 181750Z 30008KT CAVOK 28/06 Q1016 NOSIG=
METAR EDDM 181750Z 32005KT 300V360 CAVOK 26/12 Q1016 NOSIG=
METAR EDDN 181750Z 34010KT 310V010 CAVOK 26/09 Q1016 NOSIG=
METAR EDDP 181750Z 34015KT CAVOK 24/09 Q1016 NOSIG=
METAR EDDT 181750Z 34008KT 290V030 CAVOK 25/13 Q1014 NOSIG=
METAR EDQM 181750Z 33009KT 300V010 CAVOK 23/04 Q1017=
METAR EPBY 181800Z 33011KT 9999 BKN011 21/18 Q1010 =
METAR EPGD 181800Z 31012KT CAVOK 21/18 Q1010 =
METAR EPKK 181800Z 30012KT 9999 -SHRA FEW002 SCT014CB BKN026 19/18 Q1008 RESHRA =
METAR EPKT 181800Z 31010KT 6000 -SHRA SCT002 BKN004 BKN010CB 18/17 Q1010 RERA =
METAR EPLL 181800Z 33007KT 300V360 9999 -SHRA FEW009 FEW040CB 20/18 Q1009 =
METAR EPPO 181800Z 30008KT 9999 SCT011 BKN031 19/17 Q1012 R10/190095 =
METAR EPRZ 181800Z 30005KT CAVOK 23/20 Q1005 =
METAR EPWA 181800Z 30007KT 9999 FEW048CB 21/20 Q1007 NOSIG=
METAR EPWR 181800Z 31010KT 9999 FEW012 BKN042 19/18 Q1013 =
METAR LHBP 181800Z 31020KT 9999 SCT023 BKN110 20/18 Q1008 NOSIG=
METAR LHSM NIL
METAR LKCV 181800Z 36004KT CAVOK 23/15 Q1013 NOSIG RMK BLU BLU=
METAR LKKB 181800Z 34010KT 300V020 9999 FEW048 SCT060 25/10 Q1014 NOSIG RMK BLU BLU=
METAR LKKU 181800Z 32006KT 9999 BKN044 20/15 Q1012 RMK REG QNH 1009=
METAR LKKV 181800Z 31009KT 280V340 CAVOK 23/07 Q1016 RMK REG QNH 1009=
METAR LKLN NIL
METAR LKMT 181800Z 34013KT 9999 -RA BKN016 BKN040 18/15 Q1012 NOSIG RMK REG QNH 1009=
METAR LKNA 181800Z 33011KT CAVOK 22/12 Q1014 NOSIG RMK BLU BLU=
METAR LKPD 181800Z 00000KT CAVOK 21/16 Q1013 NOSIG RMK BLU BLU=
METAR LKPR 181800Z 34013KT CAVOK 25/10 Q1015 NOSIG RMK REG QNH 1009=
METAR LKTB 181800Z 33005KT CAVOK 20/15 Q1013 NOSIG RMK REG QNH 1008=
METAR LKVO NIL
METAR LOWI 181750Z 07014KT 9999 FEW080 25/11 Q1016 NOSIG=
METAR LOWL 181750Z 29009KT 9999 FEW070 BKN300 27/11 Q1014 NOSIG=
METAR LOWS 181750Z 05002KT 9999 FEW050 SCT080 26/15 Q1015 NOSIG=
METAR LOWW 181750Z 35008KT CAVOK 21/16 Q1013 NOSIG=
METAR LZIB 181800Z 32012KT 9999 FEW025 BKN081 BKN100 21/15 Q1012 WS ALL RWY NOSIG=
METAR LZKZ 181800Z VRB02KT 9999 FEW020 SCT040 20/19 Q1006=
METAR LZPP 181800Z 34007KT 9999 FEW010 OVC035 19/17 Q1011=
METAR LZSL 181800Z 36003KT 290V080 9999 -RA SCT040 20/15 Q1008=
METAR LZTT 181800Z 26011KT 9999 -RA FEW010 SCT026 OVC046 17/15 Q1009=
METAR LZZI 181800Z 31005KT 260V020 9999 SCT024 BKN029 19/15 Q1011=